GXA4359 KMCI-CYYZ
Flight info
| Callsign | GXA4359 |
|---|---|
| Flight time | N/A |
| Altitude | 37000 |
| Route | ROYAL2 BODYN DCT QWERI NUBER6 |
| Aircraft | A320/M-SDE3FGHIRWY/LB1 |
Departure
| Time | N/A |
|---|---|
| Airport | Kansas City International Airport (KMCI) |
Arrival
| Time | 2026-05-04 00:59 |
|---|---|
| Airport | Toronto Pearson International Airport (CYYZ) |
| Time | Latitude | Longitude | Altitude | Speed | Heading |
|---|---|---|---|---|---|
| 2026-05-03 23:50 | 41.11527 | -89.31291 | 36844 ft | 488 kts | 65° |
| 2026-05-03 23:50 | 41.12630 | -89.27024 | 36845 ft | 489 kts | 65° |
| 2026-05-03 23:51 | 41.14824 | -89.18500 | 36847 ft | 486 kts | 65° |
| 2026-05-03 23:51 | 41.17000 | -89.10022 | 36843 ft | 485 kts | 65° |
| 2026-05-03 23:52 | 41.19172 | -89.01534 | 36837 ft | 485 kts | 66° |
| 2026-05-03 23:52 | 41.21336 | -88.93041 | 36836 ft | 486 kts | 66° |
| 2026-05-03 23:53 | 41.23491 | -88.84539 | 36858 ft | 486 kts | 66° |
| 2026-05-03 23:53 | 41.25649 | -88.76023 | 36847 ft | 486 kts | 66° |
| 2026-05-03 23:54 | 41.27809 | -88.67494 | 36837 ft | 486 kts | 66° |
| 2026-05-03 23:54 | 41.29949 | -88.59023 | 36835 ft | 486 kts | 66° |
| 2026-05-03 23:55 | 41.32088 | -88.50491 | 36832 ft | 486 kts | 66° |
| 2026-05-03 23:55 | 41.34211 | -88.41939 | 36850 ft | 486 kts | 66° |
| 2026-05-03 23:56 | 41.36330 | -88.33398 | 36837 ft | 486 kts | 66° |
| 2026-05-03 23:56 | 41.38454 | -88.24858 | 36833 ft | 486 kts | 66° |
| 2026-05-03 23:57 | 41.40566 | -88.16309 | 36831 ft | 486 kts | 66° |
| 2026-05-03 23:57 | 41.42670 | -88.07760 | 36842 ft | 486 kts | 67° |
| 2026-05-03 23:58 | 41.44770 | -87.99194 | 36841 ft | 486 kts | 67° |
| 2026-05-03 23:58 | 41.46861 | -87.90622 | 36838 ft | 486 kts | 67° |
| 2026-05-03 23:59 | 41.48935 | -87.82109 | 36847 ft | 486 kts | 67° |
| 2026-05-03 23:59 | 41.51015 | -87.73538 | 36846 ft | 486 kts | 67° |
| 2026-05-04 00:00 | 41.53081 | -87.64959 | 36853 ft | 486 kts | 67° |
| 2026-05-04 00:00 | 41.55149 | -87.56359 | 36876 ft | 486 kts | 67° |
| 2026-05-04 00:01 | 41.57219 | -87.47751 | 36867 ft | 486 kts | 67° |
| 2026-05-04 00:01 | 41.59260 | -87.39201 | 36838 ft | 486 kts | 67° |
| 2026-05-04 00:02 | 41.61309 | -87.30602 | 36851 ft | 486 kts | 68° |
| 2026-05-04 00:02 | 41.63355 | -87.21989 | 36842 ft | 486 kts | 68° |
| 2026-05-04 00:03 | 41.65390 | -87.13375 | 36860 ft | 486 kts | 68° |
| 2026-05-04 00:03 | 41.67419 | -87.04760 | 36856 ft | 486 kts | 68° |
| 2026-05-04 00:04 | 41.69438 | -86.96138 | 36856 ft | 486 kts | 68° |
| 2026-05-04 00:04 | 41.71452 | -86.87495 | 36865 ft | 486 kts | 68° |
| 2026-05-04 00:05 | 41.73444 | -86.78917 | 36888 ft | 486 kts | 68° |
| 2026-05-04 00:05 | 41.75458 | -86.70225 | 36878 ft | 486 kts | 68° |
| 2026-05-04 00:06 | 41.77438 | -86.61640 | 36877 ft | 486 kts | 68° |
| 2026-05-04 00:06 | 41.79428 | -86.52990 | 36910 ft | 485 kts | 68° |
| 2026-05-04 00:07 | 41.81413 | -86.44353 | 36904 ft | 485 kts | 68° |
| 2026-05-04 00:07 | 41.83388 | -86.35702 | 36894 ft | 485 kts | 68° |
| 2026-05-04 00:08 | 41.85351 | -86.27057 | 36891 ft | 485 kts | 69° |
| 2026-05-04 00:08 | 41.87310 | -86.18396 | 36898 ft | 485 kts | 69° |
| 2026-05-04 00:09 | 41.89260 | -86.09739 | 36897 ft | 485 kts | 69° |
| 2026-05-04 00:09 | 41.91208 | -86.01055 | 36888 ft | 485 kts | 69° |
| 2026-05-04 00:10 | 41.93157 | -85.92368 | 36899 ft | 485 kts | 69° |
| 2026-05-04 00:10 | 41.95084 | -85.83732 | 36904 ft | 485 kts | 69° |
| 2026-05-04 00:11 | 41.97009 | -85.75038 | 36899 ft | 486 kts | 69° |
| 2026-05-04 00:11 | 41.98929 | -85.66333 | 36898 ft | 486 kts | 69° |
| 2026-05-04 00:12 | 42.00854 | -85.57616 | 36900 ft | 486 kts | 69° |
| 2026-05-04 00:12 | 42.02772 | -85.48903 | 36899 ft | 486 kts | 69° |
| 2026-05-04 00:13 | 42.04355 | -85.41654 | 36921 ft | 486 kts | 69° |
| 2026-05-04 00:13 | 42.06253 | -85.32917 | 36911 ft | 487 kts | 69° |
| 2026-05-04 00:14 | 42.08147 | -85.24166 | 36922 ft | 487 kts | 69° |
| 2026-05-04 00:14 | 42.10039 | -85.15399 | 36930 ft | 487 kts | 70° |
| 2026-05-04 00:15 | 42.11921 | -85.06625 | 36926 ft | 487 kts | 70° |
| 2026-05-04 00:15 | 42.13787 | -84.97894 | 36933 ft | 487 kts | 70° |
| 2026-05-04 00:16 | 42.15666 | -84.89116 | 36932 ft | 488 kts | 70° |
| 2026-05-04 00:16 | 42.17537 | -84.80315 | 36930 ft | 488 kts | 70° |
| 2026-05-04 00:17 | 42.19400 | -84.71505 | 36907 ft | 488 kts | 70° |
| 2026-05-04 00:17 | 42.21254 | -84.62687 | 36924 ft | 488 kts | 70° |
| 2026-05-04 00:18 | 42.23105 | -84.53862 | 36916 ft | 489 kts | 70° |
| 2026-05-04 00:18 | 42.24949 | -84.45023 | 36914 ft | 489 kts | 70° |
| 2026-05-04 00:19 | 42.26769 | -84.36231 | 36929 ft | 489 kts | 70° |
| 2026-05-04 00:19 | 42.28600 | -84.27386 | 36947 ft | 489 kts | 71° |
| 2026-05-04 00:20 | 42.30426 | -84.18549 | 36931 ft | 488 kts | 71° |
| 2026-05-04 00:20 | 42.32243 | -84.09708 | 36930 ft | 488 kts | 71° |
| 2026-05-04 00:21 | 42.34049 | -84.00858 | 36914 ft | 488 kts | 71° |
| 2026-05-04 00:21 | 42.35847 | -83.92011 | 36928 ft | 488 kts | 71° |
| 2026-05-04 00:22 | 42.37627 | -83.83223 | 36927 ft | 487 kts | 71° |
| 2026-05-04 00:22 | 42.39411 | -83.74382 | 36926 ft | 487 kts | 71° |
| 2026-05-04 00:23 | 42.41188 | -83.65536 | 36913 ft | 487 kts | 71° |
| 2026-05-04 00:23 | 42.42956 | -83.56689 | 36913 ft | 487 kts | 71° |
| 2026-05-04 00:24 | 42.44722 | -83.47820 | 36930 ft | 487 kts | 71° |
| 2026-05-04 00:24 | 42.46478 | -83.38959 | 36898 ft | 487 kts | 71° |
| 2026-05-04 00:25 | 42.48226 | -83.30093 | 36892 ft | 487 kts | 71° |
| 2026-05-04 00:25 | 42.49967 | -83.21224 | 36887 ft | 487 kts | 71° |
| 2026-05-04 00:26 | 42.51705 | -83.12342 | 36891 ft | 487 kts | 72° |
| 2026-05-04 00:26 | 42.53439 | -83.03455 | 36885 ft | 488 kts | 72° |
| 2026-05-04 00:27 | 42.55159 | -82.94556 | 36836 ft | 488 kts | 72° |
| 2026-05-04 00:27 | 42.56866 | -82.85654 | 36835 ft | 488 kts | 72° |
| 2026-05-04 00:28 | 42.58565 | -82.76803 | 36844 ft | 488 kts | 72° |
| 2026-05-04 00:28 | 42.60281 | -82.67880 | 36842 ft | 488 kts | 72° |
| 2026-05-04 00:29 | 42.61984 | -82.58942 | 36850 ft | 489 kts | 72° |
| 2026-05-04 00:29 | 42.63668 | -82.49990 | 36856 ft | 489 kts | 72° |
| 2026-05-04 00:30 | 42.65342 | -82.41092 | 36873 ft | 489 kts | 72° |
| 2026-05-04 00:30 | 42.67031 | -82.32126 | 36884 ft | 489 kts | 72° |
| 2026-05-04 00:31 | 42.69549 | -82.23651 | 36881 ft | 480 kts | 54° |
| 2026-05-04 00:31 | 42.73386 | -82.16302 | 36878 ft | 476 kts | 49° |
| 2026-05-04 00:32 | 42.77310 | -82.09037 | 36888 ft | 476 kts | 49° |
| 2026-05-04 00:32 | 42.81053 | -82.01557 | 36884 ft | 481 kts | 56° |
| 2026-05-04 00:33 | 42.85950 | -81.89693 | 36882 ft | 480 kts | 56° |
| 2026-05-04 00:34 | 42.89228 | -81.81755 | 36876 ft | 480 kts | 56° |
| 2026-05-04 00:34 | 42.92503 | -81.73804 | 36874 ft | 480 kts | 56° |
| 2026-05-04 00:35 | 42.95777 | -81.65843 | 36829 ft | 481 kts | 57° |
| 2026-05-04 00:35 | 42.97388 | -81.61905 | 36566 ft | 480 kts | 57° |
| 2026-05-04 00:35 | 42.99032 | -81.57873 | 36313 ft | 479 kts | 57° |
| 2026-05-04 00:35 | 43.00633 | -81.53940 | 35624 ft | 482 kts | 57° |
| 2026-05-04 00:36 | 43.02267 | -81.49928 | 34712 ft | 485 kts | 56° |
| 2026-05-04 00:36 | 43.03910 | -81.45886 | 33757 ft | 487 kts | 56° |
| 2026-05-04 00:36 | 43.05552 | -81.41842 | 32683 ft | 487 kts | 56° |
| 2026-05-04 00:36 | 43.07197 | -81.37790 | 31651 ft | 488 kts | 57° |
| 2026-05-04 00:37 | 43.08827 | -81.33714 | 30648 ft | 488 kts | 57° |
| 2026-05-04 00:37 | 43.10431 | -81.29631 | 29949 ft | 483 kts | 58° |
| 2026-05-04 00:37 | 43.11999 | -81.25596 | 29229 ft | 476 kts | 58° |
| 2026-05-04 00:37 | 43.13534 | -81.21620 | 28602 ft | 469 kts | 58° |
| 2026-05-04 00:38 | 43.15048 | -81.17698 | 27981 ft | 462 kts | 58° |
| 2026-05-04 00:38 | 43.16542 | -81.13837 | 27353 ft | 456 kts | 58° |
| 2026-05-04 00:38 | 43.18025 | -81.10018 | 26752 ft | 451 kts | 57° |
| 2026-05-04 00:38 | 43.19491 | -81.06239 | 26150 ft | 447 kts | 58° |
| 2026-05-04 00:39 | 43.20945 | -81.02492 | 25557 ft | 443 kts | 57° |
| 2026-05-04 00:39 | 43.22382 | -80.98789 | 24975 ft | 439 kts | 57° |
| 2026-05-04 00:39 | 43.23814 | -80.95099 | 24392 ft | 435 kts | 57° |
| 2026-05-04 00:39 | 43.25208 | -80.91497 | 23846 ft | 432 kts | 57° |
| 2026-05-04 00:40 | 43.26613 | -80.87865 | 23271 ft | 429 kts | 58° |
| 2026-05-04 00:40 | 43.28003 | -80.84269 | 22728 ft | 425 kts | 58° |
| 2026-05-04 00:40 | 43.29375 | -80.80706 | 22233 ft | 420 kts | 58° |
| 2026-05-04 00:40 | 43.30727 | -80.77182 | 21756 ft | 415 kts | 58° |
| 2026-05-04 00:41 | 43.32067 | -80.73691 | 21289 ft | 411 kts | 58° |
| 2026-05-04 00:41 | 43.33391 | -80.70242 | 20845 ft | 406 kts | 58° |
| 2026-05-04 00:41 | 43.34702 | -80.66819 | 20396 ft | 402 kts | 58° |
| 2026-05-04 00:41 | 43.35997 | -80.63433 | 19928 ft | 399 kts | 58° |
| 2026-05-04 00:42 | 43.37284 | -80.60071 | 19453 ft | 396 kts | 58° |
| 2026-05-04 00:42 | 43.38563 | -80.56730 | 18979 ft | 394 kts | 58° |
| 2026-05-04 00:42 | 43.39831 | -80.53405 | 18513 ft | 392 kts | 59° |
| 2026-05-04 00:42 | 43.41094 | -80.50093 | 18037 ft | 390 kts | 59° |
| 2026-05-04 00:43 | 43.42342 | -80.46820 | 17667 ft | 383 kts | 59° |
| 2026-05-04 00:43 | 43.43577 | -80.43578 | 17202 ft | 381 kts | 59° |
| 2026-05-04 00:43 | 43.44804 | -80.40348 | 16711 ft | 379 kts | 59° |
| 2026-05-04 00:43 | 43.45970 | -80.37100 | 16235 ft | 379 kts | 65° |
| 2026-05-04 00:44 | 43.46911 | -80.33761 | 15766 ft | 378 kts | 66° |
| 2026-05-04 00:44 | 43.47846 | -80.30402 | 15473 ft | 371 kts | 66° |
| 2026-05-04 00:44 | 43.48754 | -80.27126 | 15349 ft | 360 kts | 66° |
| 2026-05-04 00:44 | 43.49631 | -80.23954 | 15221 ft | 350 kts | 66° |
| 2026-05-04 00:45 | 43.50488 | -80.20862 | 15026 ft | 342 kts | 66° |
| 2026-05-04 00:45 | 43.51332 | -80.17824 | 14822 ft | 339 kts | 66° |
| 2026-05-04 00:45 | 43.52164 | -80.14769 | 14431 ft | 339 kts | 67° |
| 2026-05-04 00:45 | 43.52975 | -80.11738 | 14157 ft | 335 kts | 67° |
| 2026-05-04 00:46 | 43.53773 | -80.08729 | 13812 ft | 334 kts | 67° |
| 2026-05-04 00:46 | 43.54567 | -80.05727 | 13458 ft | 333 kts | 67° |
| 2026-05-04 00:46 | 43.55355 | -80.02745 | 12927 ft | 329 kts | 67° |
| 2026-05-04 00:46 | 43.56138 | -79.99780 | 12211 ft | 327 kts | 67° |
| 2026-05-04 00:47 | 43.56916 | -79.96839 | 11711 ft | 327 kts | 67° |
| 2026-05-04 00:47 | 43.57689 | -79.93923 | 11279 ft | 328 kts | 66° |
| 2026-05-04 00:47 | 43.58473 | -79.90969 | 10917 ft | 327 kts | 66° |
| 2026-05-04 00:47 | 43.59199 | -79.87975 | 10413 ft | 332 kts | 74° |
| 2026-05-04 00:48 | 43.59489 | -79.84814 | 10008 ft | 334 kts | 88° |
| 2026-05-04 00:48 | 43.59517 | -79.81610 | 9610 ft | 333 kts | 88° |
| 2026-05-04 00:48 | 43.59543 | -79.78414 | 9197 ft | 331 kts | 88° |
| 2026-05-04 00:48 | 43.59565 | -79.75254 | 8846 ft | 327 kts | 89° |
| 2026-05-04 00:49 | 43.59585 | -79.72123 | 8436 ft | 323 kts | 89° |
| 2026-05-04 00:49 | 43.59603 | -79.69079 | 8272 ft | 311 kts | 89° |
| 2026-05-04 00:49 | 43.59621 | -79.66160 | 8116 ft | 298 kts | 89° |
| 2026-05-04 00:49 | 43.59639 | -79.63361 | 7984 ft | 286 kts | 89° |
| 2026-05-04 00:50 | 43.59653 | -79.60661 | 7747 ft | 278 kts | 89° |
| 2026-05-04 00:50 | 43.59663 | -79.58020 | 7569 ft | 273 kts | 89° |
| 2026-05-04 00:50 | 43.59930 | -79.55423 | 7405 ft | 270 kts | 69° |
| 2026-05-04 00:50 | 43.60710 | -79.53087 | 7339 ft | 268 kts | 51° |
| 2026-05-04 00:51 | 43.61890 | -79.51140 | 7201 ft | 263 kts | 39° |
| 2026-05-04 00:51 | 43.63152 | -79.49319 | 7051 ft | 263 kts | 39° |
| 2026-05-04 00:51 | 43.64409 | -79.47492 | 6896 ft | 262 kts | 40° |
| 2026-05-04 00:51 | 43.65661 | -79.45664 | 6749 ft | 261 kts | 40° |
| 2026-05-04 00:52 | 43.66909 | -79.43839 | 6592 ft | 262 kts | 40° |
| 2026-05-04 00:52 | 43.68159 | -79.42008 | 6440 ft | 262 kts | 40° |
| 2026-05-04 00:52 | 43.69407 | -79.40180 | 6289 ft | 261 kts | 40° |
| 2026-05-04 00:52 | 43.70635 | -79.38379 | 6134 ft | 260 kts | 40° |
| 2026-05-04 00:53 | 43.71896 | -79.36607 | 5978 ft | 255 kts | 30° |
| 2026-05-04 00:53 | 43.73427 | -79.35617 | 5715 ft | 235 kts | 357° |
| 2026-05-04 00:53 | 43.74945 | -79.35849 | 5356 ft | 210 kts | 327° |
| 2026-05-04 00:53 | 43.76223 | -79.36744 | 4998 ft | 205 kts | 321° |
| 2026-05-04 00:54 | 43.77400 | -79.37795 | 4641 ft | 196 kts | 306° |
| 2026-05-04 00:54 | 43.78131 | -79.39328 | 4194 ft | 190 kts | 287° |
| 2026-05-04 00:54 | 43.78441 | -79.41058 | 3951 ft | 181 kts | 272° |
| 2026-05-04 00:54 | 43.78358 | -79.42751 | 3787 ft | 174 kts | 258° |
| 2026-05-04 00:55 | 43.77934 | -79.44291 | 3608 ft | 170 kts | 243° |
| 2026-05-04 00:55 | 43.77220 | -79.45586 | 3398 ft | 169 kts | 231° |
| 2026-05-04 00:55 | 43.76416 | -79.46757 | 3171 ft | 167 kts | 231° |
| 2026-05-04 00:55 | 43.75633 | -79.47901 | 2963 ft | 163 kts | 231° |
| 2026-05-04 00:56 | 43.74887 | -79.48989 | 2750 ft | 148 kts | 231° |
| 2026-05-04 00:56 | 43.74203 | -79.49988 | 2530 ft | 140 kts | 230° |
| 2026-05-04 00:56 | 43.73548 | -79.50946 | 2355 ft | 135 kts | 230° |
| 2026-05-04 00:56 | 43.72908 | -79.51880 | 2180 ft | 134 kts | 229° |
| 2026-05-04 00:57 | 43.72269 | -79.52810 | 1990 ft | 133 kts | 228° |
| 2026-05-04 00:57 | 43.71634 | -79.53730 | 1780 ft | 133 kts | 228° |
| 2026-05-04 00:57 | 43.70999 | -79.54660 | 1622 ft | 133 kts | 227° |
| 2026-05-04 00:57 | 43.70364 | -79.55578 | 1414 ft | 132 kts | 227° |
| 2026-05-04 00:58 | 43.69725 | -79.56509 | 1230 ft | 133 kts | 227° |
| 2026-05-04 00:58 | 43.69092 | -79.57437 | 1030 ft | 133 kts | 227° |
| 2026-05-04 00:58 | 43.68458 | -79.58361 | 849 ft | 131 kts | 226° |
| 2026-05-04 00:58 | 43.67833 | -79.59273 | 688 ft | 131 kts | 227° |
| 2026-05-04 00:59 | 43.67215 | -79.60179 | 562 ft | 121 kts | 226° |
| 2026-05-04 00:59 | 43.66739 | -79.60863 | 563 ft | 74 kts | 226° |
| 2026-05-04 00:59 | 43.66497 | -79.61223 | 564 ft | 32 kts | 230° |
| 2026-05-04 00:59 | 43.66410 | -79.61465 | 559 ft | 28 kts | 251° |
| 2026-05-04 01:00 | 43.66372 | -79.61641 | 561 ft | 16 kts | 267° |
| 2026-05-04 01:00 | 43.66381 | -79.61693 | 566 ft | 0 kts | 297° |
| 2026-05-04 01:01 | 43.66385 | -79.61701 | 565 ft | 0 kts | 302° |
| 2026-05-04 01:01 | 43.66413 | -79.61741 | 564 ft | 17 kts | 316° |
| 2026-05-04 01:01 | 43.66510 | -79.61868 | 560 ft | 21 kts | 316° |
| 2026-05-04 01:01 | 43.66603 | -79.61987 | 561 ft | 14 kts | 317° |
| 2026-05-04 01:02 | 43.66667 | -79.62004 | 568 ft | 8 kts | 30° |
| 2026-05-04 01:02 | 43.66697 | -79.61973 | 572 ft | 10 kts | 41° |
| 2026-05-04 01:02 | 43.66757 | -79.61896 | 569 ft | 11 kts | 43° |
| 2026-05-04 01:02 | 43.66812 | -79.61828 | 572 ft | 11 kts | 41° |
| 2026-05-04 01:03 | 43.66866 | -79.61759 | 566 ft | 11 kts | 43° |
| 2026-05-04 01:03 | 43.66941 | -79.61664 | 570 ft | 15 kts | 40° |
| 2026-05-04 01:03 | 43.67027 | -79.61697 | 572 ft | 14 kts | 317° |
| 2026-05-04 01:03 | 43.67110 | -79.61805 | 571 ft | 17 kts | 316° |
| 2026-05-04 01:04 | 43.67203 | -79.61930 | 570 ft | 20 kts | 316° |
| 2026-05-04 01:04 | 43.67311 | -79.62070 | 567 ft | 22 kts | 316° |
| 2026-05-04 01:04 | 43.67426 | -79.62223 | 567 ft | 24 kts | 315° |
| 2026-05-04 01:04 | 43.67552 | -79.62384 | 567 ft | 26 kts | 317° |
| 2026-05-04 01:05 | 43.67686 | -79.62557 | 569 ft | 27 kts | 317° |
| 2026-05-04 01:05 | 43.67822 | -79.62734 | 567 ft | 27 kts | 317° |
| 2026-05-04 01:05 | 43.67959 | -79.62913 | 567 ft | 25 kts | 319° |
| 2026-05-04 01:05 | 43.68088 | -79.63081 | 571 ft | 26 kts | 316° |
| 2026-05-04 01:06 | 43.68222 | -79.63257 | 567 ft | 25 kts | 317° |
| 2026-05-04 01:06 | 43.68313 | -79.63380 | 567 ft | 14 kts | 300° |
| 2026-05-04 01:06 | 43.68280 | -79.63497 | 568 ft | 15 kts | 226° |
| 2026-05-04 01:06 | 43.68218 | -79.63611 | 568 ft | 12 kts | 236° |
| 2026-05-04 01:07 | 43.68153 | -79.63609 | 568 ft | 11 kts | 155° |
| 2026-05-04 01:07 | 43.68122 | -79.63590 | 571 ft | 0 kts | 155° |